Time;durP1;ratioP1;P1;durP2;ratioP2;P2;SDS_P1;SDS_P2;PMS_P1;PMS_P2;Temp;Humidity;BMP_temperature;BMP_pressure;BME280_temperature;BME280_humidity;BME280_pressure;Samples;Min_cycle;Max_cycle;Signal;HPM_P1;HPM_P2
2021/12/29 00:00:11;;;;;;;473.00;82.33;;;103.00;2227.20;;;;;;5075947;28;20025;-68
2021/12/29 00:02:37;;;;;;;341.52;74.57;;;103.00;2227.20;;;;;;5075719;28;20029;-57
2021/12/29 00:05:04;;;;;;;404.47;79.13;;;103.10;2227.20;;;;;;5075002;28;20045;-68
2021/12/29 00:07:30;;;;;;;398.20;80.27;;;103.00;2227.20;;;;;;5075755;28;20465;-68
2021/12/29 00:09:59;;;;;;;350.57;71.33;;;103.00;2227.20;;;;;;5075711;28;20021;-68
2021/12/29 00:12:26;;;;;;;349.73;69.07;;;103.00;2227.20;;;;;;5075614;28;20028;-68
2021/12/29 00:14:54;;;;;;;504.03;79.93;;;102.90;2227.20;;;;;;5075614;28;20017;-68
2021/12/29 00:17:20;;;;;;;456.83;71.70;;;102.80;2227.20;;;;;;5075585;28;20024;-68
2021/12/29 00:19:47;;;;;;;404.73;67.87;;;102.80;2227.20;;;;;;5075512;28;20099;-56
2021/12/29 00:22:13;;;;;;;550.63;76.40;;;102.70;2227.20;;;;;;5075404;28;20040;-60
2021/12/29 00:24:39;;;;;;;555.27;79.83;;;102.70;2227.20;;;;;;5074176;28;20025;-69
2021/12/29 00:27:06;;;;;;;426.58;66.03;;;102.70;2227.20;;;;;;5075666;28;20469;-67
2021/12/29 00:29:32;;;;;;;435.35;68.57;;;102.70;2227.20;;;;;;5075346;28;20101;-68
2021/12/29 00:31:58;;;;;;;638.17;86.40;;;102.80;2227.20;;;;;;5075130;28;20497;-68
2021/12/29 00:34:24;;;;;;;472.30;71.85;;;102.90;2227.20;;;;;;5075239;28;20033;-56
2021/12/29 00:36:50;;;;;;;487.80;74.53;;;102.90;2227.20;;;;;;5075216;28;20028;-67
2021/12/29 00:39:16;;;;;;;422.10;64.63;;;102.90;2227.20;;;;;;5075100;28;20074;-57
2021/12/29 00:41:42;;;;;;;301.03;62.73;;;102.90;2227.20;;;;;;5075020;28;20040;-68
2021/12/29 00:44:08;;;;;;;432.13;69.87;;;102.90;2227.20;;;;;;5075029;28;20048;-68
2021/12/29 00:46:37;;;;;;;315.97;61.07;;;103.00;2227.20;;;;;;5075249;28;20047;-66
2021/12/29 00:49:05;;;;;;;401.03;70.43;;;102.70;2227.20;;;;;;5074982;28;20048;-68
2021/12/29 00:51:31;;;;;;;465.37;73.50;;;102.90;2227.20;;;;;;5073572;28;20031;-68
2021/12/29 00:53:56;;;;;;;605.27;83.70;;;102.90;2227.20;;;;;;5074866;28;20032;-69
2021/12/29 00:56:23;;;;;;;320.83;63.77;;;102.90;2227.20;;;;;;5074830;28;20029;-63
2021/12/29 00:58:48;;;;;;;667.28;92.25;;;102.90;2227.20;;;;;;5074765;28;20016;-68
2021/12/29 01:01:15;;;;;;;676.17;88.40;;;102.90;2227.20;;;;;;5074778;28;20085;-57
2021/12/29 01:03:43;;;;;;;636.23;88.60;;;103.00;2227.20;;;;;;5074643;28;20028;-67
2021/12/29 01:06:10;;;;;;;408.67;74.13;;;103.00;2227.20;;;;;;5074612;28;20056;-56
2021/12/29 01:08:36;;;;;;;451.90;79.10;;;102.90;2227.20;;;;;;5074572;28;20031;-68
2021/12/29 01:11:04;;;;;;;313.93;70.73;;;103.00;2227.20;;;;;;5074502;28;20051;-57
2021/12/29 01:13:33;;;;;;;641.90;93.85;;;102.90;2227.20;;;;;;5074465;28;20035;-57
2021/12/29 01:18:33;;;;;;;506.38;87.82;;;102.90;2227.20;;;;;;5074464;28;20114;-68
2021/12/29 01:20:59;;;;;;;359.13;77.27;;;102.90;2227.20;;;;;;5074305;28;20104;-57
2021/12/29 01:23:25;;;;;;;244.00;73.07;;;102.90;2227.20;;;;;;5074319;28;20389;-57
2021/12/29 01:25:51;;;;;;;264.47;67.67;;;102.90;2227.20;;;;;;5074192;28;20028;-56
2021/12/29 01:28:17;;;;;;;356.95;70.60;;;102.90;2227.20;;;;;;5074268;28;20034;-57
2021/12/29 01:30:43;;;;;;;280.67;61.27;;;102.90;2227.20;;;;;;5073966;28;20044;-67
2021/12/29 01:33:09;;;;;;;225.07;59.30;;;102.90;2227.20;;;;;;5074088;28;20027;-56
2021/12/29 01:35:40;;;;;;;265.20;60.87;;;102.90;2227.20;;;;;;5074007;28;20024;-56
2021/12/29 01:38:07;;;;;;;242.13;59.10;;;102.90;2227.20;;;;;;5074054;28;20041;-68
2021/12/29 01:40:35;;;;;;;267.15;60.40;;;102.90;2227.20;;;;;;5073917;28;20035;-66
2021/12/29 01:43:06;;;;;;;195.00;50.65;;;102.90;2227.20;;;;;;5074085;28;20056;-67
2021/12/29 01:45:32;;;;;;;218.97;52.40;;;103.00;2227.20;;;;;;5073937;28;20077;-67
2021/12/29 01:48:03;;;;;;;287.53;59.87;;;103.00;2227.20;;;;;;5073840;28;20073;-65
2021/12/29 01:50:32;;;;;;;333.67;64.17;;;103.00;2227.20;;;;;;5073807;28;20024;-56
2021/12/29 01:53:06;;;;;;;224.33;54.77;;;103.00;2227.20;;;;;;5073776;28;20111;-55
2021/12/29 01:55:33;;;;;;;234.47;55.53;;;103.10;2227.20;;;;;;5073678;28;20032;-67
2021/12/29 01:57:59;;;;;;;371.77;62.72;;;103.10;2227.20;;;;;;5073636;28;20021;-67
2021/12/29 02:00:29;;;;;;;435.90;66.77;;;103.00;2227.20;;;;;;5073888;28;20380;-56
2021/12/29 02:02:56;;;;;;;465.77;67.23;;;103.10;2227.20;;;;;;5073629;28;20040;-69
2021/12/29 02:05:22;;;;;;;224.43;52.50;;;103.10;2227.20;;;;;;5073601;28;20035;-68
2021/12/29 02:07:48;;;;;;;319.53;57.23;;;103.10;2227.20;;;;;;5073559;28;20389;-68
2021/12/29 02:10:15;;;;;;;302.63;56.40;;;103.20;2227.20;;;;;;5072245;28;20568;-68
2021/12/29 02:12:42;;;;;;;359.50;59.60;;;103.20;2227.20;;;;;;5073466;28;20070;-68
2021/12/29 02:15:09;;;;;;;296.97;56.03;;;103.20;2227.20;;;;;;5073465;28;20020;-57
2021/12/29 02:17:35;;;;;;;386.87;64.03;;;103.20;2227.20;;;;;;5073404;28;20030;-57
2021/12/29 02:20:04;;;;;;;301.70;58.20;;;103.20;2227.20;;;;;;5073931;28;20023;-68
2021/12/29 02:22:48;;;;;;;444.70;67.13;;;103.20;2227.20;;;;;;5073514;28;20024;-68
2021/12/29 02:27:45;;;;;;;481.00;66.00;;;103.20;2227.20;;;;;;5073596;28;19904;-56
2021/12/29 02:30:13;;;;;;;444.48;65.18;;;103.20;2227.20;;;;;;5072832;28;20027;-57
2021/12/29 02:32:42;;;;;;;332.70;59.73;;;103.20;2227.20;;;;;;5073344;28;20541;-56
2021/12/29 02:35:08;;;;;;;226.13;52.85;;;103.20;2227.20;;;;;;5073526;28;20154;-56
2021/12/29 02:37:35;;;;;;;306.45;58.17;;;103.20;2227.20;;;;;;5073460;28;20031;-56
2021/12/29 02:40:00;;;;;;;215.43;51.50;;;103.20;2227.20;;;;;;5073169;28;20051;-57
2021/12/29 02:42:30;;;;;;;239.80;53.03;;;103.20;2227.20;;;;;;5073079;28;20075;-68
2021/12/29 02:44:55;;;;;;;225.48;50.90;;;103.20;2227.20;;;;;;5073402;28;20056;-57
2021/12/29 02:47:21;;;;;;;270.60;51.88;;;103.20;2227.20;;;;;;5073153;28;20478;-68
2021/12/29 02:49:47;;;;;;;179.82;46.95;;;103.20;2227.20;;;;;;5071767;28;20028;-68
2021/12/29 02:52:14;;;;;;;257.67;52.23;;;103.30;2227.20;;;;;;5073350;28;20104;-56
2021/12/29 02:54:41;;;;;;;263.67;52.97;;;103.30;2227.20;;;;;;5073011;28;20024;-57
2021/12/29 02:57:07;;;;;;;192.27;48.97;;;103.30;2227.20;;;;;;5073046;28;20033;-57
2021/12/29 02:59:34;;;;;;;203.77;48.03;;;103.30;2227.20;;;;;;5072960;28;20071;-56
2021/12/29 03:02:00;;;;;;;121.93;42.10;;;103.30;2227.20;;;;;;5072960;28;20082;-56
2021/12/29 03:04:26;;;;;;;151.23;43.40;;;103.30;2227.20;;;;;;5073466;28;20085;-56
2021/12/29 03:06:52;;;;;;;231.30;49.92;;;103.30;2227.20;;;;;;5072969;28;20504;-68
2021/12/29 03:09:18;;;;;;;226.57;48.30;;;103.30;2227.20;;;;;;5072900;28;20033;-56
2021/12/29 03:11:46;;;;;;;200.50;48.15;;;103.30;2227.20;;;;;;5071988;28;20034;-65
2021/12/29 03:14:13;;;;;;;272.43;52.97;;;103.30;2227.20;;;;;;5072807;28;20039;-63
2021/12/29 03:16:39;;;;;;;272.75;52.70;;;103.20;2227.20;;;;;;5072789;28;20472;-56
2021/12/29 03:19:06;;;;;;;225.32;48.15;;;103.20;2227.20;;;;;;5073377;28;20043;-56
2021/12/29 03:21:33;;;;;;;273.95;54.28;;;103.20;2227.20;;;;;;5072750;28;20033;-68
2021/12/29 03:23:59;;;;;;;154.75;45.42;;;103.20;2227.20;;;;;;5073001;28;20085;-57
2021/12/29 03:26:25;;;;;;;164.63;48.30;;;103.30;2227.20;;;;;;5072704;28;20029;-57
2021/12/29 03:28:51;;;;;;;206.00;54.17;;;103.20;2227.20;;;;;;5072995;28;20051;-67
2021/12/29 03:31:21;;;;;;;212.25;54.80;;;103.30;2227.20;;;;;;5072425;28;20131;-68
2021/12/29 03:33:48;;;;;;;142.97;46.37;;;103.20;2227.20;;;;;;5072764;28;20060;-57
2021/12/29 03:36:15;;;;;;;130.13;43.67;;;103.30;2227.20;;;;;;5072600;28;20035;-57
2021/12/29 03:38:42;;;;;;;103.75;37.63;;;103.20;2227.20;;;;;;5072579;28;20056;-68
2021/12/29 03:41:11;;;;;;;90.97;36.50;;;103.20;2227.20;;;;;;5074517;28;20028;-68
2021/12/29 03:43:38;;;;;;;167.17;43.73;;;103.30;2227.20;;;;;;5076434;28;20028;-68
2021/12/29 03:46:06;;;;;;;173.60;44.97;;;103.30;2227.20;;;;;;5074876;28;20029;-67
2021/12/29 03:48:33;;;;;;;251.77;50.93;;;103.30;2227.20;;;;;;5076106;28;20108;-68
2021/12/29 03:51:00;;;;;;;182.68;47.90;;;128.00;2252.80;;;;;;5076098;28;20466;-68
2021/12/29 03:53:26;;;;;;;217.55;51.55;;;128.00;2252.80;;;;;;5076033;28;20043;-68
2021/12/29 03:55:53;;;;;;;212.80;55.60;;;128.00;2252.80;;;;;;5076456;28;20024;-67
2021/12/29 03:58:21;;;;;;;197.13;54.42;;;103.30;2227.20;;;;;;5075960;28;20473;-57
2021/12/29 04:00:50;;;;;;;161.07;53.23;;;103.20;2227.20;;;;;;5075950;28;20032;-68
2021/12/29 04:03:16;;;;;;;156.73;51.35;;;103.20;2227.20;;;;;;5075817;28;20028;-57
2021/12/29 04:05:42;;;;;;;144.52;52.20;;;103.20;2227.20;;;;;;5075775;28;20032;-67
2021/12/29 04:08:09;;;;;;;124.47;48.67;;;103.10;2227.20;;;;;;5075825;28;20017;-56
2021/12/29 04:10:35;;;;;;;160.13;51.13;;;103.10;2227.20;;;;;;5075830;28;20025;-56
2021/12/29 04:13:02;;;;;;;137.67;49.20;;;103.10;2227.20;;;;;;5074483;28;20546;-55
2021/12/29 04:15:29;;;;;;;178.13;60.93;;;103.10;2227.20;;;;;;5075768;28;20032;-55
2021/12/29 04:18:03;;;;;;;153.37;52.33;;;103.10;2227.20;;;;;;5075691;28;20070;-55
2021/12/29 04:23:18;;;;;;;135.27;47.23;;;103.00;2227.20;;;;;;5075622;28;20098;-68
2021/12/29 04:25:48;;;;;;;118.03;45.57;;;103.10;2227.20;;;;;;5075537;28;20029;-55
2021/12/29 04:28:20;;;;;;;117.53;45.07;;;103.10;2227.20;;;;;;5075435;28;20548;-67
2021/12/29 04:30:47;;;;;;;124.00;44.47;;;103.10;2227.20;;;;;;5075371;28;20379;-57
2021/12/29 04:33:14;;;;;;;118.07;44.87;;;103.10;2227.20;;;;;;5074052;28;20385;-57
2021/12/29 04:35:40;;;;;;;125.30;48.10;;;103.00;2227.20;;;;;;5075293;28;20021;-68
2021/12/29 04:38:07;;;;;;;98.97;44.17;;;103.00;2227.20;;;;;;5075606;28;20036;-67
2021/12/29 04:40:33;;;;;;;118.87;49.27;;;103.00;2227.20;;;;;;5075197;28;20493;-56
2021/12/29 04:42:59;;;;;;;111.57;45.53;;;103.00;2227.20;;;;;;5075052;28;20469;-57
2021/12/29 04:45:25;;;;;;;122.83;50.03;;;103.00;2227.20;;;;;;5075080;28;20016;-56
2021/12/29 04:47:51;;;;;;;108.37;46.40;;;103.00;2227.20;;;;;;5073787;28;20576;-56
2021/12/29 04:53:01;;;;;;;132.30;50.17;;;102.90;2227.20;;;;;;5075197;28;20465;-68
2021/12/29 04:55:29;;;;;;;151.73;52.17;;;102.90;2227.20;;;;;;5075151;28;20056;-68
2021/12/29 04:57:56;;;;;;;135.73;49.63;;;102.90;2227.20;;;;;;5074807;28;20029;-56
2021/12/29 05:00:24;;;;;;;140.77;49.47;;;102.90;2227.20;;;;;;5074823;28;20060;-56
2021/12/29 05:02:51;;;;;;;156.47;52.97;;;102.90;2227.20;;;;;;5074746;28;20032;-68
2021/12/29 05:05:38;;;;;;;161.60;54.87;;;102.90;2227.20;;;;;;5075028;28;20024;-56
2021/12/29 05:10:50;;;;;;;177.17;60.37;;;102.80;2227.20;;;;;;5075205;28;20078;-57
2021/12/29 05:13:16;;;;;;;171.03;59.50;;;102.80;2227.20;;;;;;5074567;28;20496;-57
2021/12/29 05:15:43;;;;;;;173.57;61.23;;;102.80;2227.20;;;;;;5073198;28;20034;-67
2021/12/29 05:18:09;;;;;;;157.37;58.40;;;102.70;2227.20;;;;;;5074768;28;20020;-56
2021/12/29 05:20:35;;;;;;;173.13;57.30;;;102.70;2227.20;;;;;;5074333;28;20032;-57
2021/12/29 05:23:01;;;;;;;151.37;54.27;;;102.70;2227.20;;;;;;5074584;28;20041;-56
2021/12/29 05:25:28;;;;;;;129.03;50.93;;;102.70;2227.20;;;;;;5074348;28;20017;-56
2021/12/29 05:27:55;;;;;;;145.00;54.03;;;102.70;2227.20;;;;;;5074315;28;20090;-65
2021/12/29 05:30:21;;;;;;;134.37;51.97;;;102.70;2227.20;;;;;;5073991;28;20037;-56
2021/12/29 05:32:47;;;;;;;155.70;55.70;;;102.70;2227.20;;;;;;5074175;28;20020;-57
2021/12/29 05:35:14;;;;;;;158.27;58.87;;;102.70;2227.20;;;;;;5074176;28;20028;-63
2021/12/29 05:37:40;;;;;;;151.33;60.20;;;102.70;2227.20;;;;;;5074054;28;20469;-59
2021/12/29 05:40:08;;;;;;;138.50;55.47;;;102.70;2227.20;;;;;;5073984;28;20028;-56
2021/12/29 05:42:34;;;;;;;155.50;55.33;;;102.70;2227.20;;;;;;5072658;28;20037;-56
2021/12/29 05:45:09;;;;;;;143.20;52.23;;;102.70;2227.20;;;;;;5073971;28;20095;-56
2021/12/29 05:47:36;;;;;;;141.73;52.03;;;102.70;2227.20;;;;;;5073794;28;20043;-60
2021/12/29 05:50:08;;;;;;;135.67;51.07;;;102.70;2227.20;;;;;;5073812;28;20044;-68
2021/12/29 05:52:34;;;;;;;132.40;52.43;;;102.70;2227.20;;;;;;5074031;28;20558;-68
2021/12/29 05:55:00;;;;;;;124.50;51.63;;;102.60;2227.20;;;;;;5073811;28;20027;-68
2021/12/29 05:57:26;;;;;;;131.93;52.10;;;102.70;2227.20;;;;;;5073958;28;20469;-57
2021/12/29 05:59:52;;;;;;;130.60;53.60;;;102.70;2227.20;;;;;;5072471;28;20444;-58
2021/12/29 06:02:18;;;;;;;135.27;54.50;;;102.70;2227.20;;;;;;5073891;28;20059;-56
2021/12/29 06:04:44;;;;;;;137.80;55.00;;;102.70;2227.20;;;;;;5072969;28;20024;-57
2021/12/29 06:07:10;;;;;;;141.03;57.60;;;102.70;2227.20;;;;;;5073755;28;20085;-56
2021/12/29 06:09:35;;;;;;;182.57;80.07;;;102.60;2227.20;;;;;;5072389;28;20020;-56
2021/12/29 06:12:01;;;;;;;177.30;78.47;;;102.60;2227.20;;;;;;5073716;28;20028;-69
2021/12/29 06:14:27;;;;;;;132.53;60.03;;;102.60;2227.20;;;;;;5074001;28;20021;-57
2021/12/29 06:16:53;;;;;;;135.43;61.33;;;102.60;2227.20;;;;;;5073436;28;20035;-57
2021/12/29 06:19:19;;;;;;;124.70;58.47;;;102.60;2227.20;;;;;;5073428;28;20028;-58
2021/12/29 06:21:45;;;;;;;130.30;61.20;;;102.60;2227.20;;;;;;5072351;28;20462;-57
2021/12/29 06:24:11;;;;;;;123.57;55.90;;;102.60;2227.20;;;;;;5073613;28;20058;-67
2021/12/29 06:26:37;;;;;;;118.03;57.67;;;102.60;2227.20;;;;;;5073415;28;20059;-68
2021/12/29 06:29:03;;;;;;;129.60;59.33;;;102.60;2227.20;;;;;;5073610;28;20480;-57
2021/12/29 06:31:29;;;;;;;121.87;54.57;;;102.60;2227.20;;;;;;5073408;28;20064;-56
2021/12/29 06:33:55;;;;;;;107.23;47.90;;;102.60;2227.20;;;;;;5073318;28;20017;-56
2021/12/29 06:36:22;;;;;;;105.73;49.27;;;102.60;2227.20;;;;;;5073262;28;20049;-56
2021/12/29 06:38:48;;;;;;;108.73;48.63;;;102.60;2227.20;;;;;;5073331;28;20074;-57
2021/12/29 06:41:14;;;;;;;110.93;51.20;;;102.60;2227.20;;;;;;5073166;28;20078;-56
2021/12/29 06:43:40;;;;;;;101.37;49.73;;;102.60;2227.20;;;;;;5073732;28;20033;-58
2021/12/29 06:46:06;;;;;;;114.73;53.13;;;102.60;2227.20;;;;;;5073549;28;20025;-56
2021/12/29 06:48:32;;;;;;;114.17;52.10;;;102.70;2227.20;;;;;;5073374;28;20456;-56
2021/12/29 06:50:57;;;;;;;110.73;50.73;;;102.70;2227.20;;;;;;5073380;28;20444;-57
2021/12/29 06:53:23;;;;;;;101.27;49.10;;;102.70;2227.20;;;;;;5073248;28;20028;-56
2021/12/29 06:55:49;;;;;;;101.23;48.07;;;102.70;2227.20;;;;;;5073484;28;20029;-56
2021/12/29 06:58:15;;;;;;;107.73;48.77;;;102.80;2227.20;;;;;;5073324;28;20522;-56
2021/12/29 07:00:41;;;;;;;106.17;49.60;;;102.80;2227.20;;;;;;5072813;28;20525;-62
2021/12/29 07:03:06;;;;;;;116.17;53.93;;;102.80;2227.20;;;;;;5072386;28;20029;-56
2021/12/29 07:05:32;;;;;;;105.67;51.17;;;102.90;2227.20;;;;;;5071225;28;20365;-56
2021/12/29 07:07:59;;;;;;;102.30;52.73;;;102.90;2227.20;;;;;;5071160;28;20017;-56
2021/12/29 07:10:25;;;;;;;110.27;55.33;;;102.90;2227.20;;;;;;5072404;28;20474;-56
2021/12/29 07:12:50;;;;;;;109.43;54.13;;;102.90;2227.20;;;;;;5072814;28;20111;-57
2021/12/29 07:15:16;;;;;;;112.00;53.77;;;102.90;2227.20;;;;;;5075141;28;20099;-60
2021/12/29 07:17:43;;;;;;;105.57;52.47;;;102.90;2227.20;;;;;;5076973;28;20091;-56
2021/12/29 07:20:09;;;;;;;112.53;56.33;;;103.00;2227.20;;;;;;5076791;28;20039;-57
2021/12/29 07:22:35;;;;;;;135.07;68.70;;;103.10;2227.20;;;;;;5077034;28;20032;-57
2021/12/29 07:25:01;;;;;;;139.90;73.40;;;103.10;2227.20;;;;;;5076525;28;20354;-68
2021/12/29 07:27:27;;;;;;;123.20;64.17;;;103.20;2227.20;;;;;;5076577;28;20066;-66
2021/12/29 07:29:52;;;;;;;117.60;63.80;;;103.30;2227.20;;;;;;5076496;28;20028;-68
2021/12/29 07:32:19;;;;;;;126.40;63.43;;;103.30;2227.20;;;;;;5076283;28;20064;-57
2021/12/29 07:34:45;;;;;;;122.93;62.43;;;103.30;2227.20;;;;;;5076644;28;20431;-68
2021/12/29 07:37:12;;;;;;;132.50;68.63;;;128.10;2252.80;;;;;;5076951;28;20031;-65
2021/12/29 07:39:38;;;;;;;235.67;125.70;;;128.10;2252.80;;;;;;5076342;28;20055;-68
2021/12/29 07:42:05;;;;;;;112.72;53.35;;;128.20;2252.80;;;;;;5076210;28;20032;-59
2021/12/29 07:44:31;;;;;;;100.27;50.63;;;128.30;2252.80;;;;;;5076503;28;20090;-68
2021/12/29 07:46:58;;;;;;;132.70;65.00;;;128.30;2252.80;;;;;;5075873;28;20028;-68
2021/12/29 07:49:26;;;;;;;112.77;58.10;;;128.40;2252.80;;;;;;5076122;28;20036;-57
2021/12/29 07:51:53;;;;;;;98.13;54.30;;;128.40;2252.80;;;;;;5076339;28;20029;-57
2021/12/29 07:54:20;;;;;;;111.27;57.93;;;128.40;2252.80;;;;;;5076206;28;20025;-67
2021/12/29 07:56:46;;;;;;;126.68;65.78;;;128.30;2252.80;;;;;;5075866;28;20032;-57
2021/12/29 07:59:12;;;;;;;137.65;69.85;;;128.50;2252.80;;;;;;5074687;28;20162;-57
2021/12/29 08:01:42;;;;;;;136.23;71.33;;;128.50;2252.80;;;;;;5075810;28;20481;-57
2021/12/29 08:04:15;;;;;;;139.93;69.90;;;128.60;2252.80;;;;;;5075877;28;20413;-67
2021/12/29 08:06:42;;;;;;;125.45;64.43;;;128.60;2252.80;;;;;;5072118;28;20020;-68
2021/12/29 08:09:09;;;;;;;122.53;63.70;;;128.80;2252.80;;;;;;5074487;28;20385;-67
2021/12/29 08:11:36;;;;;;;125.20;62.33;;;128.80;2252.80;;;;;;5075577;28;20032;-67
2021/12/29 08:14:02;;;;;;;120.25;60.97;;;128.80;2252.80;;;;;;5075514;28;20484;-57
2021/12/29 08:16:28;;;;;;;128.98;64.95;;;128.70;2252.80;;;;;;5075533;28;20032;-56
2021/12/29 08:18:54;;;;;;;106.93;58.13;;;128.80;2252.80;;;;;;5075506;28;20016;-56
2021/12/29 08:21:20;;;;;;;120.13;60.55;;;128.80;2252.80;;;;;;5075352;28;20500;-67
2021/12/29 08:23:46;;;;;;;111.97;59.83;;;128.90;2252.80;;;;;;5075456;28;20024;-67
2021/12/29 08:26:12;;;;;;;127.47;65.90;;;128.90;2252.80;;;;;;5074637;28;20074;-56
2021/12/29 08:28:38;;;;;;;122.30;63.97;;;128.90;2252.80;;;;;;5075429;28;20477;-55
2021/12/29 08:31:04;;;;;;;121.35;62.88;;;128.80;2252.80;;;;;;5075102;28;20115;-56
2021/12/29 08:33:30;;;;;;;106.40;57.83;;;128.80;2252.80;;;;;;5074766;28;20366;-58
2021/12/29 08:35:56;;;;;;;252.05;132.55;;;153.60;2252.80;;;;;;5074655;28;20062;-57
2021/12/29 08:38:22;;;;;;;173.13;91.68;;;153.60;2252.80;;;;;;5074397;28;20024;-68
2021/12/29 08:40:49;;;;;;;115.60;64.20;;;153.60;2252.80;;;;;;5073687;28;20032;-62
2021/12/29 08:43:16;;;;;;;132.40;70.75;;;153.60;2252.80;;;;;;5074722;28;20461;-68
2021/12/29 08:45:44;;;;;;;122.55;64.53;;;153.70;2252.80;;;;;;5074532;28;20028;-68
2021/12/29 08:48:10;;;;;;;121.32;64.13;;;153.90;2252.80;;;;;;5074351;28;20017;-68
2021/12/29 08:50:37;;;;;;;104.07;56.70;;;153.90;2252.80;;;;;;5074484;28;20021;-68
2021/12/29 08:53:05;;;;;;;163.50;79.82;;;153.80;2252.80;;;;;;5073230;28;20020;-58
2021/12/29 08:55:32;;;;;;;155.45;98.30;;;153.90;2252.80;;;;;;5074172;28;20017;-68
2021/12/29 08:57:59;;;;;;;116.03;63.67;;;153.80;2252.80;;;;;;5074210;28;20131;-68
2021/12/29 09:00:25;;;;;;;151.75;89.30;;;153.90;2252.80;;;;;;5074182;28;20095;-59
2021/12/29 09:02:51;;;;;;;154.68;86.80;;;153.90;2252.80;;;;;;5074245;28;20040;-57
2021/12/29 09:05:18;;;;;;;152.32;81.00;;;153.90;2252.80;;;;;;5074570;28;20103;-58
2021/12/29 09:07:44;;;;;;;117.93;63.90;;;153.90;2252.80;;;;;;5074501;28;20055;-58
2021/12/29 09:10:11;;;;;;;168.75;105.35;;;154.00;2252.80;;;;;;5074352;28;20025;-58
2021/12/29 09:12:38;;;;;;;175.18;99.10;;;154.00;2252.80;;;;;;5074287;28;20366;-57
2021/12/29 09:15:05;;;;;;;274.17;165.82;;;154.00;2252.80;;;;;;5074207;28;20431;-57
2021/12/29 09:17:31;;;;;;;192.00;114.32;;;154.10;2252.80;;;;;;5074340;28;20032;-64
2021/12/29 09:19:57;;;;;;;207.10;125.68;;;154.20;2252.80;;;;;;5074065;28;20070;-58
2021/12/29 09:22:23;;;;;;;104.05;62.28;;;154.30;2252.80;;;;;;5073890;28;20067;-59
2021/12/29 09:24:50;;;;;;;127.05;74.70;;;154.40;2252.80;;;;;;5074307;28;20453;-67
2021/12/29 09:27:17;;;;;;;205.88;137.30;;;154.50;2252.80;;;;;;5073357;28;20059;-67
2021/12/29 09:29:43;;;;;;;118.25;63.75;;;179.20;2252.80;;;;;;5073358;28;20746;-67
2021/12/29 09:32:09;;;;;;;180.65;103.55;;;179.20;2252.80;;;;;;5073061;28;20444;-68
2021/12/29 09:34:35;;;;;;;132.68;76.95;;;179.30;2252.80;;;;;;5073232;28;20028;-57
2021/12/29 09:37:03;;;;;;;115.05;61.60;;;179.40;2252.80;;;;;;5073327;28;20023;-58
2021/12/29 09:39:28;;;;;;;119.28;61.78;;;179.30;2252.80;;;;;;5072061;28;20024;-60
2021/12/29 09:41:55;;;;;;;119.15;66.93;;;179.30;2252.80;;;;;;5073084;28;20044;-58
2021/12/29 09:44:21;;;;;;;121.25;67.70;;;179.40;2252.80;;;;;;5070805;28;20016;-57
2021/12/29 09:46:48;;;;;;;147.52;83.63;;;179.20;2252.80;;;;;;5071853;28;20036;-58
2021/12/29 09:49:15;;;;;;;235.00;137.43;;;154.40;2252.80;;;;;;5072955;28;20047;-68
2021/12/29 09:51:41;;;;;;;176.93;84.05;;;154.40;2252.80;;;;;;5070506;28;20020;-67
2021/12/29 09:54:07;;;;;;;193.68;91.95;;;154.50;2252.80;;;;;;5072837;28;20039;-57
2021/12/29 09:56:33;;;;;;;175.70;78.13;;;154.40;2252.80;;;;;;5072967;28;20060;-56
2021/12/29 09:58:59;;;;;;;156.57;78.30;;;154.40;2252.80;;;;;;5072797;28;20100;-59
2021/12/29 10:01:25;;;;;;;136.52;69.85;;;154.30;2252.80;;;;;;5072599;28;20056;-68
2021/12/29 10:03:51;;;;;;;155.40;93.10;;;154.30;2252.80;;;;;;5072877;28;20024;-57
2021/12/29 10:06:17;;;;;;;171.25;94.45;;;154.40;2252.80;;;;;;5072626;28;20027;-57
2021/12/29 10:08:47;;;;;;;151.38;86.13;;;154.50;2252.80;;;;;;5072831;28;20538;-67
2021/12/29 10:11:29;;;;;;;148.75;79.15;;;179.30;2252.80;;;;;;5072786;28;20420;-65
2021/12/29 10:13:56;;;;;;;171.68;97.53;;;179.30;2252.80;;;;;;5072183;28;20075;-64
2021/12/29 10:16:26;;;;;;;195.70;110.40;;;179.40;2252.80;;;;;;5073190;28;20021;-59
2021/12/29 10:19:07;;;;;;;123.70;72.65;;;179.30;2252.80;;;;;;5073365;28;20082;-67
2021/12/29 10:21:35;;;;;;;94.90;58.08;;;179.20;2252.80;;;;;;5073047;28;20028;-68
2021/12/29 10:24:03;;;;;;;88.35;52.50;;;179.20;2252.80;;;;;;5073092;28;20496;-67
2021/12/29 10:26:31;;;;;;;75.00;44.42;;;179.20;2252.80;;;;;;5073082;28;20111;-68
2021/12/29 10:29:05;;;;;;;91.35;53.85;;;179.20;2252.80;;;;;;5073113;28;20512;-68
2021/12/29 10:31:38;;;;;;;109.60;56.70;;;179.30;2252.80;;;;;;5072834;28;20156;-68
2021/12/29 10:34:07;;;;;;;125.22;64.47;;;179.20;2252.80;;;;;;5073251;28;20369;-59
2021/12/29 10:36:44;;;;;;;125.93;61.63;;;179.30;2252.80;;;;;;5073005;28;20037;-57
2021/12/29 10:39:15;;;;;;;111.00;58.00;;;179.30;2252.80;;;;;;5073197;28;20063;-67
2021/12/29 10:41:51;;;;;;;117.60;63.10;;;179.40;2252.80;;;;;;5073200;28;20040;-58
2021/12/29 10:44:31;;;;;;;129.27;72.07;;;179.50;2252.80;;;;;;5073012;28;20132;-67
2021/12/29 10:46:58;;;;;;;116.70;63.70;;;179.50;2252.80;;;;;;5072692;28;20024;-67
2021/12/29 10:49:27;;;;;;;154.23;76.25;;;179.50;2252.80;;;;;;5072839;28;20035;-58
2021/12/29 10:51:56;;;;;;;147.55;79.03;;;179.40;2252.80;;;;;;5076611;28;20048;-60
2021/12/29 10:54:25;;;;;;;113.70;61.70;;;179.40;2252.80;;;;;;5073998;28;20086;-60
2021/12/29 10:57:07;;;;;;;91.97;55.05;;;179.30;2252.80;;;;;;5076585;28;20048;-57
2021/12/29 10:59:38;;;;;;;85.07;47.10;;;179.30;2252.80;;;;;;5075670;28;20029;-63
2021/12/29 11:02:06;;;;;;;229.02;76.60;;;179.30;2252.80;;;;;;5074364;28;20094;-67
2021/12/29 11:04:32;;;;;;;198.57;79.53;;;179.30;2252.80;;;;;;5076849;28;20157;-58
2021/12/29 11:07:01;;;;;;;126.93;64.40;;;179.20;2252.80;;;;;;5075141;28;20421;-58
2021/12/29 11:09:36;;;;;;;251.23;97.72;;;154.50;2252.80;;;;;;5076793;28;20524;-62
2021/12/29 11:12:10;;;;;;;273.88;108.85;;;154.50;2252.80;;;;;;5076551;28;20473;-59
2021/12/29 11:14:42;;;;;;;171.23;78.57;;;179.30;2252.80;;;;;;5076601;28;20046;-58
2021/12/29 11:17:17;;;;;;;306.65;118.47;;;179.40;2252.80;;;;;;5076898;28;20036;-56
2021/12/29 11:19:59;;;;;;;97.07;51.88;;;179.60;2252.80;;;;;;5076612;28;20465;-58
2021/12/29 11:22:27;;;;;;;149.80;65.75;;;179.70;2252.80;;;;;;5076362;28;20040;-57
2021/12/29 11:25:01;;;;;;;201.95;81.70;;;180.10;2252.80;;;;;;5076540;28;20126;-64
2021/12/29 11:27:28;;;;;;;154.43;71.97;;;180.10;2252.80;;;;;;5076260;28;20469;-68
2021/12/29 11:29:56;;;;;;;78.45;46.45;;;205.10;2252.80;;;;;;5076344;28;20070;-68
2021/12/29 11:32:31;;;;;;;70.00;43.17;;;205.40;2252.80;;;;;;5076147;28;20045;-59
2021/12/29 11:35:09;;;;;;;210.05;79.07;;;205.50;2252.80;;;;;;5076468;28;20025;-68
2021/12/29 11:37:37;;;;;;;96.15;50.05;;;205.40;2252.80;;;;;;5075920;28;20119;-56
2021/12/29 11:40:05;;;;;;;109.70;69.72;;;205.30;2252.80;;;;;;5076149;28;20220;-69
2021/12/29 11:42:32;;;;;;;68.30;46.33;;;205.20;2252.80;;;;;;5075863;28;20041;-67
2021/12/29 11:44:58;;;;;;;77.35;49.92;;;205.20;2252.80;;;;;;5076130;28;20025;-70
2021/12/29 11:47:24;;;;;;;65.38;44.28;;;205.10;2252.80;;;;;;5075827;28;20127;-70
2021/12/29 11:49:50;;;;;;;55.78;38.58;;;205.20;2252.80;;;;;;5075928;28;20031;-66
2021/12/29 11:52:34;;;;;;;523.28;180.93;;;205.40;2252.80;;;;;;5075743;28;20039;-67
2021/12/29 11:55:17;;;;;;;343.45;128.25;;;205.20;2252.80;;;;;;5075753;28;20024;-59
2021/12/29 11:57:43;;;;;;;141.18;65.03;;;205.20;2252.80;;;;;;5074568;28;20378;-67
2021/12/29 12:00:18;;;;;;;116.78;66.82;;;205.20;2252.80;;;;;;5076437;28;20427;-63
2021/12/29 12:02:53;;;;;;;115.90;75.88;;;205.40;2252.80;;;;;;5074933;28;20040;-67
2021/12/29 12:05:37;;;;;;;90.65;59.72;;;205.60;2252.80;;;;;;5076306;28;20025;-68